Time;durP1;ratioP1;P1;durP2;ratioP2;P2;SDS_P1;SDS_P2;PMS_P1;PMS_P2;Temp;Humidity;BMP_temperature;BMP_pressure;BME280_temperature;BME280_humidity;BME280_pressure;Samples;Min_cycle;Max_cycle;Signal;HPM_P1;HPM_P2
2022/12/13 00:00:37;;;;;;;56.35;35.75;;;-3.90;99.90;;;;;;4959359;28;89849;-34
2022/12/13 00:03:02;;;;;;;58.55;38.17;;;-4.00;99.90;;;;;;4960664;28;89914;-31
2022/12/13 00:05:28;;;;;;;55.35;37.42;;;-4.00;99.90;;;;;;4959176;28;89546;-31
2022/12/13 00:07:54;;;;;;;57.85;36.05;;;-4.00;99.90;;;;;;4960533;28;90431;-34
2022/12/13 00:10:19;;;;;;;53.47;35.33;;;-4.00;99.90;;;;;;4959339;28;90046;-30
2022/12/13 00:12:45;;;;;;;57.72;34.45;;;-3.90;99.90;;;;;;4959803;28;90138;-35
2022/12/13 00:15:10;;;;;;;64.97;39.30;;;-3.90;99.90;;;;;;4959364;28;90116;-32
2022/12/13 00:17:36;;;;;;;56.60;36.08;;;-3.80;99.90;;;;;;4959039;28;89550;-33
2022/12/13 00:20:03;;;;;;;46.67;32.70;;;-3.90;99.90;;;;;;4959447;28;89571;-30
2022/12/13 00:22:29;;;;;;;56.33;35.47;;;-3.90;99.90;;;;;;4959167;28;89842;-34
2022/12/13 00:24:55;;;;;;;54.22;35.67;;;-3.90;99.90;;;;;;4959290;28;89886;-34
2022/12/13 00:27:21;;;;;;;47.88;32.65;;;-4.00;99.90;;;;;;4960051;28;88049;-32
2022/12/13 00:29:47;;;;;;;55.67;32.13;;;-4.00;99.90;;;;;;4958945;28;88757;-29
2022/12/13 00:32:12;;;;;;;49.67;34.92;;;-3.90;99.90;;;;;;4959273;28;90175;-34
2022/12/13 00:34:38;;;;;;;61.85;35.35;;;-3.90;99.90;;;;;;4958675;28;90679;-34
2022/12/13 00:37:03;;;;;;;56.30;34.65;;;-3.90;99.90;;;;;;4959409;28;90500;-34
2022/12/13 00:39:29;;;;;;;56.05;37.30;;;-3.80;99.90;;;;;;4959479;28;89714;-31
2022/12/13 00:41:55;;;;;;;59.42;35.22;;;-3.80;99.90;;;;;;4958649;28;90689;-32
2022/12/13 00:44:21;;;;;;;58.10;40.00;;;-3.70;99.90;;;;;;4959497;28;89628;-33
2022/12/13 00:46:47;;;;;;;64.93;37.97;;;-3.70;99.90;;;;;;4958790;28;89751;-32
2022/12/13 00:49:13;;;;;;;52.90;37.08;;;-3.70;99.90;;;;;;4959782;28;90563;-33
2022/12/13 00:51:39;;;;;;;58.63;36.50;;;-3.70;99.90;;;;;;4958843;28;90696;-32
2022/12/13 00:54:05;;;;;;;53.35;38.63;;;-3.60;99.90;;;;;;4958980;28;89693;-33
2022/12/13 00:56:31;;;;;;;54.83;36.88;;;-3.60;99.90;;;;;;4959033;28;89499;-32
2022/12/13 00:58:57;;;;;;;58.08;38.05;;;-3.60;99.90;;;;;;4957997;28;89347;-32
2022/12/13 01:01:26;;;;;;;57.33;38.33;;;-3.60;99.90;;;;;;4959293;28;89972;-31
2022/12/13 01:03:54;;;;;;;55.13;34.97;;;-3.60;99.90;;;;;;4959056;28;90055;-33
2022/12/13 01:06:22;;;;;;;57.40;33.60;;;-3.60;99.90;;;;;;4959366;28;89299;-31
2022/12/13 01:08:48;;;;;;;;;;;-3.60;99.90;;;;;;4960432;28;88789;-30
2022/12/13 01:11:14;;;;;;;64.68;36.17;;;-3.70;99.90;;;;;;4960159;28;90773;-34
2022/12/13 01:13:40;;;;;;;49.85;32.67;;;-3.70;99.90;;;;;;4959179;28;89743;-32
2022/12/13 01:16:09;;;;;;;51.97;32.53;;;-3.70;99.90;;;;;;4959009;28;89773;-32
2022/12/13 01:18:36;;;;;;;52.33;34.25;;;-3.80;99.90;;;;;;4958417;28;90164;-32
2022/12/13 01:21:06;;;;;;;58.17;35.92;;;-3.80;99.90;;;;;;4958513;28;90707;-36
2022/12/13 01:23:32;;;;;;;59.78;36.03;;;-3.80;99.90;;;;;;4958232;28;90855;-33
2022/12/13 01:26:01;;;;;;;51.30;38.38;;;-3.90;99.90;;;;;;4958012;28;90762;-31
2022/12/13 01:28:26;;;;;;;53.10;36.15;;;-3.90;99.90;;;;;;4959219;28;89541;-31
2022/12/13 01:30:57;;;;;;;64.70;35.22;;;-3.90;99.90;;;;;;4958789;28;89838;-30
2022/12/13 01:33:23;;;;;;;58.40;32.72;;;-3.90;99.90;;;;;;4958679;28;89225;-31
2022/12/13 01:35:49;;;;;;;53.15;36.00;;;-3.90;99.90;;;;;;4958460;28;89993;-32
2022/12/13 01:38:15;;;;;;;50.35;35.25;;;-4.00;99.90;;;;;;4959122;28;90099;-31
2022/12/13 01:40:50;;;;;;;52.08;33.95;;;-4.00;99.90;;;;;;4957694;28;90015;-30
2022/12/13 01:43:16;;;;;;;61.38;37.22;;;-4.00;99.90;;;;;;4959045;28;89491;-32
2022/12/13 01:45:42;;;;;;;53.28;33.30;;;-4.00;99.90;;;;;;4958273;28;90149;-33
2022/12/13 01:48:19;;;;;;;51.72;33.10;;;-4.00;99.90;;;;;;4957863;28;89456;-32
2022/12/13 01:50:49;;;;;;;58.38;34.40;;;-4.10;99.90;;;;;;4958585;28;90728;-33
2022/12/13 01:53:20;;;;;;;48.65;36.20;;;-4.10;99.90;;;;;;4957520;28;89768;-33
2022/12/13 01:55:52;;;;;;;58.55;36.80;;;-4.10;99.90;;;;;;4958347;28;89509;-32
2022/12/13 01:58:19;;;;;;;54.13;33.53;;;-4.10;99.90;;;;;;4958440;28;90044;-34
2022/12/13 02:00:46;;;;;;;48.85;33.88;;;-4.10;99.90;;;;;;4958005;28;90948;-35
2022/12/13 02:03:13;;;;;;;49.33;33.67;;;-4.10;99.90;;;;;;4959001;28;88840;-30
2022/12/13 02:05:50;;;;;;;55.78;36.55;;;-4.10;99.90;;;;;;4958160;28;89842;-30
2022/12/13 02:08:18;;;;;;;52.35;32.88;;;-4.10;99.90;;;;;;4957041;28;88434;-31
2022/12/13 02:10:44;;;;;;;49.72;32.13;;;-4.20;99.90;;;;;;4956346;28;88849;-32
2022/12/13 02:13:10;;;;;;;46.55;30.42;;;-4.20;99.90;;;;;;4960911;28;89500;-32
2022/12/13 02:15:47;;;;;;;48.72;32.20;;;-4.30;99.90;;;;;;4961562;28;90052;-31
2022/12/13 02:18:23;;;;;;;47.30;30.30;;;-4.30;99.90;;;;;;4961745;28;90037;-35
2022/12/13 02:21:12;;;;;;;51.22;33.30;;;-4.40;99.90;;;;;;4961735;28;90695;-33
2022/12/13 02:23:54;;;;;;;55.47;31.58;;;-4.50;99.90;;;;;;4961733;28;90214;-31
2022/12/13 02:26:34;;;;;;;50.08;29.60;;;-4.50;99.90;;;;;;4960970;28;90030;-31
2022/12/13 02:29:18;;;;;;;52.65;31.83;;;-4.50;99.90;;;;;;4961645;28;88914;-30
2022/12/13 02:32:30;;;;;;;49.13;29.90;;;-4.60;99.90;;;;;;4961692;28;89860;-33
2022/12/13 02:35:08;;;;;;;45.28;29.73;;;-4.60;99.90;;;;;;4927032;28;89722;-31
2022/12/13 02:38:08;;;;;;;47.88;27.13;;;-4.70;99.90;;;;;;4961011;28;89174;-31
2022/12/13 02:40:40;;;;;;;54.25;31.75;;;-4.70;99.90;;;;;;4960962;28;88158;-32
2022/12/13 02:43:20;;;;;;;48.38;30.02;;;-4.70;99.90;;;;;;4961684;28;90433;-35
2022/12/13 02:45:49;;;;;;;45.00;31.38;;;-4.70;99.90;;;;;;4961037;28;89995;-33
2022/12/13 02:48:21;;;;;;;47.05;31.40;;;-4.70;99.90;;;;;;4961173;28;88787;-32
2022/12/13 02:50:48;;;;;;;42.97;30.80;;;-4.80;99.90;;;;;;4961063;28;88169;-32
2022/12/13 02:53:15;;;;;;;46.63;31.05;;;-4.80;99.90;;;;;;4961055;28;89938;-33
2022/12/13 02:55:40;;;;;;;41.05;31.08;;;-4.80;99.90;;;;;;4960828;28;90116;-33
2022/12/13 02:58:09;;;;;;;50.28;31.67;;;-4.80;99.90;;;;;;4961354;28;89231;-33
2022/12/13 03:01:00;;;;;;;55.25;31.20;;;-4.80;99.90;;;;;;4960770;28;88966;-34
2022/12/13 03:04:04;;;;;;;52.30;30.98;;;-4.80;99.90;;;;;;4954504;28;89951;-32
2022/12/13 03:06:42;;;;;;;49.78;34.13;;;-4.80;99.90;;;;;;4909689;28;90110;-30
2022/12/13 03:09:24;;;;;;;50.97;28.92;;;-4.80;99.90;;;;;;4947549;28;90789;-32
2022/12/13 03:15:29;;;;;;;53.40;30.60;;;-4.70;99.90;;;;;;4957000;28;89887;-31
2022/12/13 03:18:05;;;;;;;48.17;31.38;;;-4.70;99.90;;;;;;4961073;28;89656;-31
2022/12/13 03:20:31;;;;;;;54.95;32.63;;;-4.70;99.90;;;;;;4954752;28;90012;-31
2022/12/13 03:22:57;;;;;;;43.17;29.15;;;-4.70;99.90;;;;;;4951851;28;89198;-31
2022/12/13 03:25:25;;;;;;;48.08;33.25;;;-4.70;99.90;;;;;;4959986;28;90533;-32
2022/12/13 03:27:52;;;;;;;51.53;32.72;;;-4.70;99.90;;;;;;4961065;28;89268;-31
2022/12/13 03:30:17;;;;;;;53.00;35.35;;;-4.60;99.90;;;;;;4960293;28;90292;-31
2022/12/13 03:32:43;;;;;;;50.28;32.38;;;-4.70;99.90;;;;;;4959681;28;90461;-32
2022/12/13 03:35:09;;;;;;;40.08;30.75;;;-4.70;99.90;;;;;;4959847;28;89825;-33
2022/12/13 03:37:34;;;;;;;49.00;31.50;;;-4.70;99.90;;;;;;4954065;28;90081;-34
2022/12/13 03:40:00;;;;;;;45.92;32.25;;;-4.70;99.90;;;;;;4952715;28;89659;-30
2022/12/13 03:42:26;;;;;;;56.22;32.50;;;-4.70;99.90;;;;;;4959781;28;88624;-32
2022/12/13 03:44:51;;;;;;;51.38;33.33;;;-4.70;99.90;;;;;;4960597;28;90351;-32
2022/12/13 03:47:17;;;;;;;51.72;31.90;;;-4.70;99.90;;;;;;4960561;28;89466;-33
2022/12/13 03:49:43;;;;;;;46.15;30.60;;;-4.80;99.90;;;;;;4959340;28;89502;-32
2022/12/13 03:52:08;;;;;;;50.70;29.98;;;-4.80;99.90;;;;;;4960725;28;87644;-31
2022/12/13 03:54:34;;;;;;;50.75;31.65;;;-4.80;99.90;;;;;;4959247;28;91265;-32
2022/12/13 03:57:00;;;;;;;47.78;30.65;;;-4.90;99.90;;;;;;4948370;28;90762;-30
2022/12/13 03:59:26;;;;;;;55.17;31.98;;;-5.00;99.90;;;;;;4957425;28;89113;-32
2022/12/13 04:01:52;;;;;;;44.78;29.65;;;-5.10;99.90;;;;;;4959546;28;88207;-33
2022/12/13 04:04:17;;;;;;;49.88;29.52;;;-5.20;99.90;;;;;;4959984;28;89800;-32
2022/12/13 04:06:43;;;;;;;49.85;30.63;;;-5.20;99.90;;;;;;4959916;28;89923;-34
2022/12/13 04:09:08;;;;;;;49.95;30.98;;;-5.20;99.90;;;;;;4960039;28;89079;-32
2022/12/13 04:14:18;;;;;;;53.42;31.83;;;-5.20;99.90;;;;;;4953478;28;90050;-32
2022/12/13 04:16:44;;;;;;;44.08;29.65;;;-5.20;99.90;;;;;;4959732;28;88029;-33
2022/12/13 04:19:09;;;;;;;55.83;36.28;;;-5.20;99.90;;;;;;4959741;28;90837;-32
2022/12/13 04:21:35;;;;;;;45.25;29.60;;;-5.20;99.90;;;;;;4958571;28;89925;-32
2022/12/13 04:24:01;;;;;;;53.78;34.40;;;-5.20;99.90;;;;;;4959587;28;90279;-33
2022/12/13 04:26:26;;;;;;;52.15;34.53;;;-5.10;99.90;;;;;;4957814;28;90594;-34
2022/12/13 04:28:52;;;;;;;51.00;35.53;;;-5.10;99.90;;;;;;4959965;28;90928;-32
2022/12/13 04:31:18;;;;;;;49.55;30.15;;;-5.10;99.90;;;;;;4959765;28;89035;-31
2022/12/13 04:33:43;;;;;;;48.72;31.08;;;-5.10;99.90;;;;;;4958577;28;90844;-30
2022/12/13 04:36:09;;;;;;;51.67;31.17;;;-5.10;99.90;;;;;;4958767;28;89044;-32
2022/12/13 04:38:34;;;;;;;42.70;29.95;;;-5.10;99.90;;;;;;4959793;28;88513;-31
2022/12/13 04:41:10;;;;;;;52.40;30.88;;;-5.10;99.90;;;;;;4959887;28;88281;-33
2022/12/13 04:43:35;;;;;;;50.78;31.75;;;-5.10;99.90;;;;;;4959232;28;90318;-31
2022/12/13 04:46:01;;;;;;;50.67;29.70;;;-5.10;99.90;;;;;;4958468;28;91171;-32
2022/12/13 04:48:26;;;;;;;50.92;30.83;;;-5.10;99.90;;;;;;4958814;28;90655;-31
2022/12/13 04:50:52;;;;;;;60.25;35.50;;;-5.00;99.90;;;;;;4959333;28;88156;-31
2022/12/13 04:53:17;;;;;;;43.55;30.88;;;-5.10;99.90;;;;;;4959615;28;89578;-32
2022/12/13 04:55:43;;;;;;;56.67;33.35;;;-5.00;99.90;;;;;;4958999;28;90341;-34
2022/12/13 04:58:09;;;;;;;55.65;30.13;;;-5.10;99.90;;;;;;4958716;28;89538;-34
2022/12/13 05:00:34;;;;;;;48.00;31.20;;;-5.00;99.90;;;;;;4959093;28;87555;-32
2022/12/13 05:03:00;;;;;;;48.47;32.47;;;-5.10;99.90;;;;;;4957698;28;91487;-31
2022/12/13 05:05:25;;;;;;;48.85;30.70;;;-5.10;99.90;;;;;;4958416;28;90397;-32
2022/12/13 05:07:51;;;;;;;53.20;33.53;;;-5.10;99.90;;;;;;4959685;28;89888;-31
2022/12/13 05:10:17;;;;;;;55.88;31.90;;;-5.10;99.90;;;;;;4958789;28;90051;-32
2022/12/13 05:12:42;;;;;;;57.85;34.58;;;-5.10;99.90;;;;;;4944852;28;89591;-32
2022/12/13 05:15:08;;;;;;;51.92;33.13;;;-5.20;99.90;;;;;;4944823;28;89760;-33
2022/12/13 05:17:33;;;;;;;55.22;31.10;;;-5.10;99.90;;;;;;4958949;28;89552;-32
2022/12/13 05:19:59;;;;;;;50.78;34.42;;;-5.10;99.90;;;;;;4958635;28;88878;-31
2022/12/13 05:22:25;;;;;;;57.90;35.30;;;-5.10;99.90;;;;;;4958749;28;90706;-30
2022/12/13 05:24:51;;;;;;;52.97;34.13;;;-5.10;99.90;;;;;;4958842;28;89885;-31
2022/12/13 05:27:17;;;;;;;53.17;35.00;;;-5.00;99.90;;;;;;4959158;28;90432;-30
2022/12/13 05:29:42;;;;;;;59.85;34.92;;;-5.00;99.90;;;;;;4959093;28;88493;-30
2022/12/13 05:32:08;;;;;;;63.13;37.45;;;-4.90;99.90;;;;;;4958737;28;92425;-31
2022/12/13 05:34:33;;;;;;;60.53;37.60;;;-4.90;99.90;;;;;;4957982;28;89489;-34
2022/12/13 05:36:59;;;;;;;53.15;36.38;;;-4.90;99.90;;;;;;4958403;28;90399;-32
2022/12/13 05:39:25;;;;;;;59.78;37.13;;;-4.90;99.90;;;;;;4958574;28;89691;-34
2022/12/13 05:41:51;;;;;;;54.50;32.53;;;-4.90;99.90;;;;;;4958697;28;89257;-31
2022/12/13 05:44:17;;;;;;;61.25;36.40;;;-4.80;99.90;;;;;;4958954;28;89960;-33
2022/12/13 05:46:42;;;;;;;62.78;37.83;;;-4.90;99.90;;;;;;4958611;28;89518;-30
2022/12/13 05:49:08;;;;;;;54.08;34.58;;;-4.80;99.90;;;;;;4958853;28;89857;-32
2022/12/13 05:51:34;;;;;;;59.30;38.20;;;-4.80;99.90;;;;;;4957997;28;90102;-32
2022/12/13 05:53:59;;;;;;;60.95;37.13;;;-4.80;99.90;;;;;;4958529;28;89723;-29
2022/12/13 05:56:25;;;;;;;72.53;42.78;;;-4.80;99.90;;;;;;4958382;28;89344;-30
2022/12/13 05:58:52;;;;;;;58.67;36.35;;;-4.80;99.90;;;;;;4958646;28;89975;-32
2022/12/13 06:01:18;;;;;;;61.20;36.87;;;-4.80;99.90;;;;;;4958024;28;92091;-32
2022/12/13 06:03:44;;;;;;;67.70;40.28;;;-4.90;99.90;;;;;;4957195;28;90000;-35
2022/12/13 06:06:11;;;;;;;67.03;43.20;;;-4.90;99.90;;;;;;4958533;28;89815;-33
2022/12/13 06:08:38;;;;;;;70.82;45.28;;;-4.90;99.90;;;;;;4958752;28;90708;-32
2022/12/13 06:11:05;;;;;;;74.32;44.90;;;-4.90;99.90;;;;;;4956830;28;89787;-32
2022/12/13 06:13:30;;;;;;;72.55;44.20;;;-4.90;99.90;;;;;;4940343;28;90777;-33
2022/12/13 06:16:01;;;;;;;64.15;41.80;;;-4.90;99.90;;;;;;4950757;28;90887;-30
2022/12/13 06:18:26;;;;;;;73.30;42.42;;;-4.90;99.90;;;;;;4955579;28;89006;-32
2022/12/13 06:20:57;;;;;;;73.10;42.50;;;-5.00;99.90;;;;;;4948006;28;90241;-33
2022/12/13 06:23:23;;;;;;;73.20;45.05;;;-5.00;99.90;;;;;;4957100;28;91160;-32
2022/12/13 06:25:48;;;;;;;72.10;45.70;;;-4.90;99.90;;;;;;4957867;28;90204;-34
2022/12/13 06:28:14;;;;;;;69.47;44.38;;;-4.90;99.90;;;;;;4957859;28;88725;-31
2022/12/13 06:30:40;;;;;;;67.43;41.97;;;-5.00;99.90;;;;;;4957641;28;90231;-33
2022/12/13 06:33:05;;;;;;;64.18;42.47;;;-4.90;99.90;;;;;;4957849;28;89179;-32
2022/12/13 06:35:31;;;;;;;64.85;39.20;;;-5.00;99.90;;;;;;4956543;28;89579;-34
2022/12/13 06:37:57;;;;;;;66.97;40.08;;;-5.10;99.90;;;;;;4958525;28;90062;-30
2022/12/13 06:40:23;;;;;;;73.47;44.78;;;-5.10;99.90;;;;;;4957901;28;89690;-33
2022/12/13 06:42:48;;;;;;;66.82;40.80;;;-5.10;99.90;;;;;;4958003;28;89410;-32
2022/12/13 06:45:14;;;;;;;60.38;40.83;;;-5.20;99.90;;;;;;4958182;28;89461;-31
2022/12/13 06:47:39;;;;;;;66.45;44.28;;;-5.20;99.90;;;;;;4957080;28;89049;-32
2022/12/13 06:50:05;;;;;;;64.35;41.40;;;-5.20;99.90;;;;;;4957417;28;90368;-33
2022/12/13 06:52:31;;;;;;;63.80;41.25;;;-5.30;99.90;;;;;;4957596;28;89785;-31
2022/12/13 06:54:57;;;;;;;64.43;41.08;;;-5.30;99.90;;;;;;4958557;28;89637;-32
2022/12/13 06:57:22;;;;;;;74.80;44.92;;;-5.30;99.90;;;;;;4958133;28;90210;-32
2022/12/13 06:59:48;;;;;;;66.38;40.92;;;-5.30;99.90;;;;;;4960678;28;89997;-34
2022/12/13 07:02:14;;;;;;;64.53;43.03;;;-5.30;99.90;;;;;;4960730;28;90203;-34
2022/12/13 07:04:39;;;;;;;69.43;44.03;;;-5.30;99.90;;;;;;4958676;28;89857;-34
2022/12/13 07:07:05;;;;;;;71.63;41.50;;;-5.30;99.90;;;;;;4958583;28;88353;-33
2022/12/13 07:09:31;;;;;;;67.78;40.58;;;-5.30;99.90;;;;;;4958091;28;89960;-33
2022/12/13 07:11:58;;;;;;;72.63;39.70;;;-5.30;99.90;;;;;;4950768;28;90470;-32
2022/12/13 07:14:24;;;;;;;65.50;41.13;;;-5.30;99.90;;;;;;4952939;28;91957;-35
2022/12/13 07:16:49;;;;;;;68.57;38.75;;;-5.30;99.90;;;;;;4957751;28;88312;-33
2022/12/13 07:19:15;;;;;;;56.75;40.72;;;-5.20;99.90;;;;;;4961397;28;90160;-31
2022/12/13 07:21:40;;;;;;;64.15;37.58;;;-5.30;99.90;;;;;;4959860;28;89701;-32
2022/12/13 07:24:06;;;;;;;69.60;42.03;;;-5.20;99.90;;;;;;4958551;28;89075;-32
2022/12/13 07:26:32;;;;;;;70.47;42.65;;;-5.30;99.90;;;;;;4959447;28;89864;-32
2022/12/13 07:28:57;;;;;;;66.85;40.60;;;-5.40;99.90;;;;;;4959322;28;90300;-31
2022/12/13 07:31:24;;;;;;;62.47;37.92;;;-5.40;99.90;;;;;;4958952;28;90930;-35
2022/12/13 07:33:49;;;;;;;63.88;42.20;;;-5.40;99.90;;;;;;4958476;28;89276;-32
2022/12/13 07:36:18;;;;;;;68.70;39.53;;;-5.40;99.90;;;;;;4958539;28;89763;-33
2022/12/13 07:38:48;;;;;;;66.78;40.35;;;-5.40;99.90;;;;;;4958469;28;90520;-31
2022/12/13 07:41:14;;;;;;;72.45;42.70;;;-5.40;99.90;;;;;;4958486;28;89767;-34
2022/12/13 07:43:40;;;;;;;70.05;39.38;;;-5.40;99.90;;;;;;4957593;28;90009;-30
2022/12/13 07:46:06;;;;;;;64.55;40.70;;;-5.40;99.90;;;;;;4958258;28;88393;-34
2022/12/13 07:48:32;;;;;;;69.55;39.78;;;-5.40;99.90;;;;;;4958017;28;90173;-31
2022/12/13 07:51:04;;;;;;;71.55;41.10;;;-5.40;99.90;;;;;;4956982;28;91885;-32
2022/12/13 07:53:29;;;;;;;62.35;39.10;;;-5.40;99.90;;;;;;4958530;28;92503;-32
2022/12/13 07:55:55;;;;;;;67.45;38.90;;;-5.40;99.90;;;;;;4959217;28;87848;-31
2022/12/13 07:58:21;;;;;;;64.25;38.05;;;-5.40;99.90;;;;;;4958251;28;90137;-32
2022/12/13 08:00:47;;;;;;;66.15;36.70;;;-5.30;99.90;;;;;;4956716;28;90206;-32
2022/12/13 08:03:14;;;;;;;58.78;34.58;;;-5.30;99.90;;;;;;4958205;28;89829;-33
2022/12/13 08:05:40;;;;;;;61.22;34.53;;;-5.20;99.90;;;;;;4958044;28;89223;-33
2022/12/13 08:08:07;;;;;;;55.80;36.00;;;-5.20;99.90;;;;;;4958681;28;90303;-31
2022/12/13 08:10:33;;;;;;;56.30;35.30;;;-5.10;99.90;;;;;;4957452;28;89732;-31
2022/12/13 08:13:01;;;;;;;50.35;34.95;;;-5.00;99.90;;;;;;4943505;28;90073;-32
2022/12/13 08:15:27;;;;;;;;;;;-4.90;99.90;;;;;;4958717;28;88523;-32
2022/12/13 08:17:55;;;;;;;57.80;31.67;;;-4.90;99.90;;;;;;4960708;28;90165;-30
2022/12/13 08:20:20;;;;;;;44.88;29.52;;;-4.80;99.90;;;;;;4959902;28;88979;-32
2022/12/13 08:22:56;;;;;;;64.40;38.65;;;-4.80;99.90;;;;;;4957814;28;89612;-34
2022/12/13 08:25:23;;;;;;;71.28;39.60;;;-4.70;99.90;;;;;;4955493;28;90336;-33
2022/12/13 08:27:48;;;;;;;82.05;37.67;;;-4.60;99.90;;;;;;4959944;28;91157;-32
2022/12/13 08:30:14;;;;;;;63.38;34.83;;;-4.60;99.90;;;;;;4958240;28;89841;-32
2022/12/13 08:32:40;;;;;;;66.63;37.08;;;-4.50;99.90;;;;;;4961618;28;89636;-33
2022/12/13 08:35:06;;;;;;;53.08;35.92;;;-4.50;99.90;;;;;;4958512;28;88356;-32
2022/12/13 08:37:31;;;;;;;57.10;40.22;;;-4.40;99.90;;;;;;4959758;28;90313;-31
2022/12/13 08:39:57;;;;;;;66.15;41.22;;;-4.30;99.90;;;;;;4959097;28;89533;-33
2022/12/13 08:42:24;;;;;;;58.92;36.92;;;-4.30;99.90;;;;;;4958132;28;89263;-31
2022/12/13 08:44:51;;;;;;;59.28;35.30;;;-4.20;99.90;;;;;;4967035;28;88708;-31
2022/12/13 08:47:18;;;;;;;57.85;37.65;;;-4.20;99.90;;;;;;4961296;28;90194;-33
2022/12/13 08:49:44;;;;;;;61.35;39.90;;;-4.20;99.90;;;;;;4964452;28;91342;-31
2022/12/13 08:52:09;;;;;;;54.60;37.17;;;-4.10;99.90;;;;;;4963374;28;90491;-31
2022/12/13 08:54:35;;;;;;;65.65;40.45;;;-4.10;99.90;;;;;;4959195;28;88729;-30
2022/12/13 08:57:00;;;;;;;57.95;40.15;;;-4.00;99.90;;;;;;4959911;28;90310;-31
2022/12/13 08:59:26;;;;;;;66.47;39.55;;;-4.00;99.90;;;;;;4965424;28;89632;-34
2022/12/13 09:01:52;;;;;;;57.78;38.95;;;-3.90;99.90;;;;;;4967921;28;89906;-30
2022/12/13 09:04:18;;;;;;;58.17;38.13;;;-3.90;99.90;;;;;;4966851;28;87651;-30
2022/12/13 09:06:43;;;;;;;60.20;37.45;;;-3.90;99.90;;;;;;4965403;28;89946;-32
2022/12/13 09:09:09;;;;;;;61.92;40.05;;;-3.80;99.90;;;;;;4966471;28;89619;-34
2022/12/13 09:11:34;;;;;;;62.50;39.10;;;-3.70;99.90;;;;;;4957131;28;88608;-31
2022/12/13 09:14:00;;;;;;;60.22;38.03;;;-3.70;99.90;;;;;;4953723;28;89376;-33
2022/12/13 09:16:26;;;;;;;66.35;45.13;;;-3.60;99.90;;;;;;4964546;28;91279;-32
2022/12/13 09:18:52;;;;;;;67.95;41.33;;;-3.40;99.90;;;;;;4963906;28;90765;-31
2022/12/13 09:21:18;;;;;;;57.80;39.40;;;-3.20;99.90;;;;;;4960513;28;88396;-30
2022/12/13 09:23:44;;;;;;;73.32;43.92;;;-3.00;99.90;;;;;;4959594;28;88763;-33
2022/12/13 09:26:15;;;;;;;76.82;45.35;;;-3.00;99.90;;;;;;4996301;22;90561;-30
2022/12/13 09:28:41;;;;;;;75.75;44.83;;;-3.00;99.90;;;;;;4945955;28;89802;-32
2022/12/13 09:31:07;;;;;;;67.57;45.80;;;-3.00;99.90;;;;;;4938838;28;89695;-34
2022/12/13 09:33:32;;;;;;;79.15;47.95;;;-3.10;99.90;;;;;;4937848;28;88449;-29
2022/12/13 09:35:58;;;;;;;78.20;48.15;;;-3.10;99.90;;;;;;4939326;28;90169;-32
2022/12/13 09:38:23;;;;;;;65.90;47.53;;;-3.10;99.90;;;;;;4938816;28;90888;-37
2022/12/13 09:40:53;;;;;;;76.78;46.83;;;-3.20;99.90;;;;;;4938922;28;90360;-32
2022/12/13 09:43:26;;;;;;;63.13;44.22;;;-3.10;99.90;;;;;;4939407;28;88914;-31
2022/12/13 09:45:53;;;;;;;66.40;43.97;;;-3.10;99.90;;;;;;4937672;28;89887;-33
2022/12/13 09:48:20;;;;;;;65.53;45.08;;;-3.10;99.90;;;;;;4937438;28;89470;-31
2022/12/13 09:50:47;;;;;;;68.95;43.53;;;-3.00;99.90;;;;;;4940244;28;89368;-32
2022/12/13 09:53:16;;;;;;;66.95;40.92;;;-2.90;99.90;;;;;;4943619;28;89118;-30
2022/12/13 09:55:45;;;;;;;71.32;42.53;;;-2.70;99.90;;;;;;4939624;28;89298;-32
2022/12/13 09:58:19;;;;;;;61.30;44.25;;;-2.60;99.90;;;;;;4938614;28;89933;-31
2022/12/13 10:00:47;;;;;;;61.63;43.60;;;-2.50;99.90;;;;;;4937731;28;89701;-32
2022/12/13 10:03:16;;;;;;;70.93;46.28;;;-2.40;99.90;;;;;;4940417;28;90156;-31
2022/12/13 10:05:57;;;;;;;58.42;39.85;;;-2.30;99.90;;;;;;4939552;28;90665;-31
2022/12/13 10:08:30;;;;;;;65.00;44.63;;;-2.20;99.90;;;;;;4939458;28;89462;-32
2022/12/13 10:10:56;;;;;;;66.65;44.85;;;-2.10;99.90;;;;;;4938618;28;88909;-31
2022/12/13 10:13:43;;;;;;;69.70;47.08;;;-2.10;99.90;;;;;;4923546;28;89831;-33
2022/12/13 10:16:17;;;;;;;69.10;47.15;;;-1.90;99.90;;;;;;4937295;28;90463;-32
2022/12/13 10:18:43;;;;;;;65.22;44.78;;;-1.90;99.90;;;;;;4942509;28;89234;-32
2022/12/13 10:21:17;;;;;;;73.85;48.78;;;-1.80;99.90;;;;;;4941797;28;89083;-33
2022/12/13 10:23:42;;;;;;;65.53;46.55;;;-1.70;99.90;;;;;;4946499;28;88661;-31
2022/12/13 10:26:10;;;;;;;74.45;47.03;;;-1.70;99.90;;;;;;4936234;28;90378;-35
2022/12/13 10:28:36;;;;;;;60.25;42.47;;;-1.70;99.90;;;;;;4935781;28;90604;-33
2022/12/13 10:31:02;;;;;;;77.25;49.05;;;-1.70;99.90;;;;;;4936756;28;90817;-32
2022/12/13 10:33:34;;;;;;;63.83;46.42;;;-1.60;99.90;;;;;;4949382;28;88189;-32
2022/12/13 10:36:28;;;;;;;65.28;46.70;;;-1.60;99.90;;;;;;4946065;28;90573;-31
2022/12/13 10:38:54;;;;;;;63.72;45.60;;;-1.50;99.90;;;;;;4942657;28;89836;-33
2022/12/13 10:41:28;;;;;;;68.30;48.13;;;-1.50;99.90;;;;;;4943937;28;89499;-31
2022/12/13 10:44:33;;;;;;;64.32;45.25;;;-1.40;99.90;;;;;;4947373;28;88709;-34
2022/12/13 10:47:04;;;;;;;75.60;51.40;;;-1.40;99.90;;;;;;4888537;28;89881;-31
2022/12/13 10:49:34;;;;;;;72.25;48.78;;;-1.30;99.90;;;;;;4884379;28;89234;-34
2022/12/13 10:52:00;;;;;;;70.28;49.88;;;-1.20;99.90;;;;;;4915524;28;88978;-30
2022/12/13 10:54:27;;;;;;;56.78;41.47;;;-1.20;99.90;;;;;;4942817;28;89864;-31
2022/12/13 10:56:58;;;;;;;62.78;47.22;;;-1.10;99.90;;;;;;4947632;28;89842;-32
2022/12/13 10:59:37;;;;;;;78.00;49.47;;;-1.10;99.90;;;;;;4928298;28;90448;-34
2022/12/13 11:02:48;;;;;;;60.67;47.72;;;-1.10;99.90;;;;;;4948761;28;89242;-30
2022/12/13 11:05:35;;;;;;;70.97;48.05;;;-1.00;99.90;;;;;;4949246;28;88924;-32
2022/12/13 11:08:15;;;;;;;73.20;48.97;;;-0.90;99.90;;;;;;4952551;28;90613;-31
2022/12/13 11:10:41;;;;;;;66.07;47.55;;;-0.80;99.90;;;;;;4949736;28;89677;-34
2022/12/13 11:13:07;;;;;;;63.55;45.55;;;-0.70;99.90;;;;;;4938193;28;88275;-34
2022/12/13 11:15:36;;;;;;;67.05;48.15;;;-0.60;99.90;;;;;;4952373;28;88633;-31
2022/12/13 11:18:06;;;;;;;68.03;49.17;;;-0.50;99.90;;;;;;4951023;28;89242;-34
2022/12/13 11:20:48;;;;;;;69.05;48.45;;;-0.40;99.90;;;;;;4951080;28;90652;-35
2022/12/13 11:23:22;;;;;;;66.22;44.75;;;-0.40;99.90;;;;;;4950717;28;90608;-30
2022/12/13 11:25:53;;;;;;;62.42;45.20;;;-0.30;99.90;;;;;;4950003;28;89030;-31
2022/12/13 11:28:40;;;;;;;65.05;44.95;;;-0.30;99.90;;;;;;4951260;28;89578;-32
2022/12/13 11:31:26;;;;;;;71.88;49.65;;;-0.20;99.90;;;;;;4952113;28;89844;-33
2022/12/13 11:34:13;;;;;;;65.88;48.25;;;-0.20;99.90;;;;;;4951387;28;89604;-33
2022/12/13 11:36:57;;;;;;;73.18;47.22;;;-0.10;99.90;;;;;;4951712;28;87722;-31
2022/12/13 11:39:51;;;;;;;67.68;48.88;;;0.00;99.90;;;;;;4950732;28;90461;-33
2022/12/13 11:42:26;;;;;;;64.15;47.42;;;0.00;99.90;;;;;;4946320;28;89623;-33
2022/12/13 11:44:59;;;;;;;68.28;46.60;;;0.10;99.90;;;;;;4950228;28;89364;-31
2022/12/13 11:47:35;;;;;;;60.47;45.55;;;0.10;99.90;;;;;;4950051;28;89152;-31
2022/12/13 11:50:12;;;;;;;70.82;51.92;;;0.10;99.90;;;;;;4950546;28;90012;-31
2022/12/13 11:52:51;;;;;;;66.97;47.75;;;0.10;99.90;;;;;;4948416;28;89929;-31
2022/12/13 11:55:39;;;;;;;65.13;47.42;;;0.10;99.90;;;;;;4950541;28;88382;-30
2022/12/13 11:58:26;;;;;;;65.60;50.20;;;0.20;99.90;;;;;;4940650;28;88054;-31
2022/12/13 12:01:00;;;;;;;67.40;46.13;;;0.20;99.90;;;;;;4928418;28;90045;-33
2022/12/13 12:03:38;;;;;;;67.13;46.42;;;0.30;99.90;;;;;;4942483;28;89833;-34
2022/12/13 12:06:20;;;;;;;62.83;44.97;;;0.30;99.90;;;;;;4945855;28;89029;-31
2022/12/13 12:08:56;;;;;;;66.53;47.10;;;0.30;99.90;;;;;;4941480;28;88749;-34
2022/12/13 12:11:33;;;;;;;61.28;45.10;;;0.40;99.90;;;;;;4945986;28;91186;-34
2022/12/13 12:14:19;;;;;;;67.03;46.28;;;0.40;99.90;;;;;;4937675;28;90654;-34
2022/12/13 12:16:52;;;;;;;59.10;45.70;;;0.50;99.90;;;;;;4947999;28;88662;-33
2022/12/13 12:19:36;;;;;;;63.97;48.83;;;0.50;99.90;;;;;;4947225;28;87633;-32
2022/12/13 12:22:34;;;;;;;65.40;49.65;;;0.50;99.90;;;;;;4950246;28;89861;-33
2022/12/13 12:25:21;;;;;;;61.05;43.63;;;0.50;99.90;;;;;;4946327;28;89702;-32
2022/12/13 12:28:15;;;;;;;63.80;44.53;;;0.50;99.90;;;;;;4937993;28;89985;-32
2022/12/13 12:31:18;;;;;;;61.38;44.35;;;0.50;99.90;;;;;;4937946;28;88918;-33
2022/12/13 12:34:21;;;;;;;60.22;43.65;;;0.40;99.90;;;;;;4938865;28;89631;-32
2022/12/13 12:36:55;;;;;;;54.05;43.42;;;0.40;99.90;;;;;;4936759;28;89157;-32
2022/12/13 12:39:43;;;;;;;61.58;42.22;;;0.30;99.90;;;;;;4938604;28;89189;-32
2022/12/13 12:42:23;;;;;;;61.40;42.70;;;0.20;99.90;;;;;;4937910;28;90458;-32
2022/12/13 12:44:49;;;;;;;55.13;44.00;;;0.20;99.90;;;;;;4938202;28;90457;-31
2022/12/13 12:47:41;;;;;;;62.22;45.45;;;0.20;99.90;;;;;;4937252;28;90718;-33